Time;durP1;ratioP1;P1;durP2;ratioP2;P2;SDS_P1;SDS_P2;PMS_P1;PMS_P2;Temp;Humidity;BMP_temperature;BMP_pressure;BME280_temperature;BME280_humidity;BME280_pressure;Samples;Min_cycle;Max_cycle;Signal;HPM_P1;HPM_P2
2022/07/05 00:01:22;;;;;;;8.20;3.17;;;;;;;24.55;46.76;94860.50;4971411;28;20208;-75
2022/07/05 00:04:17;;;;;;;7.07;3.40;;;;;;;24.59;46.27;94861.44;4971687;28;20209;-75
2022/07/05 00:10:08;;;;;;;4.93;3.53;;;;;;;24.48;45.86;94860.09;4971419;28;20716;-75
2022/07/05 00:15:59;;;;;;;6.25;3.10;;;;;;;24.40;47.17;94855.50;4967481;28;20209;-75
2022/07/05 00:18:59;;;;;;;6.60;3.55;;;;;;;24.28;46.90;94856.03;4971311;28;20223;-76
2022/07/05 00:24:35;;;;;;;6.32;4.00;;;;;;;24.28;48.01;94856.03;4970945;28;20213;-75
2022/07/05 00:27:29;;;;;;;7.10;4.10;;;;;;;24.23;49.44;94856.16;4971414;28;20207;-76
2022/07/05 00:30:18;;;;;;;8.38;3.80;;;;;;;24.04;47.51;94852.00;4971200;28;20205;-75
2022/07/05 00:33:13;;;;;;;6.32;3.38;;;;;;;24.01;47.55;94841.97;4971829;28;20213;-75
2022/07/05 00:36:22;;;;;;;5.15;3.08;;;;;;;24.04;46.97;94854.66;4971447;28;20260;-75
2022/07/05 00:39:12;;;;;;;9.65;3.33;;;;;;;23.98;46.20;94840.69;4967912;28;21211;-76
2022/07/05 00:42:09;;;;;;;4.45;3.28;;;;;;;23.95;46.80;94840.50;4971281;28;20640;-75
2022/07/05 00:45:04;;;;;;;5.03;3.10;;;;;;;23.78;47.72;94848.28;4970870;28;20264;-75
2022/07/05 00:47:54;;;;;;;6.65;3.58;;;;;;;23.72;47.90;94831.69;4971465;28;20223;-75
2022/07/05 00:50:38;;;;;;;4.65;3.50;;;;;;;23.65;46.95;94840.03;4973447;28;20255;-75
2022/07/05 00:53:35;;;;;;;5.07;3.50;;;;;;;23.62;47.35;94832.66;4975156;28;20303;-76
2022/07/05 00:56:28;;;;;;;6.93;3.38;;;;;;;23.60;47.23;94842.00;4974606;28;20196;-75
2022/07/05 00:59:22;;;;;;;6.07;3.00;;;;;;;23.60;47.10;94840.13;4974284;28;20695;-75
2022/07/05 01:05:16;;;;;;;7.85;3.50;;;;;;;23.47;48.57;94840.88;4973386;28;20212;-75
2022/07/05 01:07:59;;;;;;;11.70;3.70;;;;;;;23.61;49.26;94840.88;4973983;28;20766;-75
2022/07/05 01:10:56;;;;;;;8.98;3.67;;;;;;;23.61;48.96;94841.69;4974640;28;20203;-75
2022/07/05 01:13:51;;;;;;;7.40;3.17;;;;;;;23.67;47.41;94842.38;4974825;28;20215;-76
2022/07/05 01:16:42;;;;;;;5.57;3.60;;;;;;;23.68;47.53;94855.38;4974534;28;20206;-75
2022/07/05 01:19:22;;;;;;;4.05;3.08;;;;;;;23.47;47.52;94848.84;4974433;28;20696;-75
2022/07/05 01:22:19;;;;;;;4.55;3.15;;;;;;;23.49;48.25;94856.53;4974029;28;20229;-75
2022/07/05 01:25:09;;;;;;;11.80;3.70;;;;;;;23.44;49.42;94864.56;4969119;28;20258;-76
2022/07/05 01:28:04;;;;;;;4.75;3.47;;;;;;;23.43;50.30;94861.16;4974413;28;20232;-76
2022/07/05 01:30:56;;;;;;;8.35;4.00;;;;;;;23.38;50.39;94863.03;4974653;28;20221;-76
2022/07/05 01:33:59;;;;;;;5.63;3.85;;;;;;;23.29;51.45;94856.88;4974081;28;20205;-76
2022/07/05 01:36:54;;;;;;;8.63;4.45;;;;;;;23.30;51.44;94853.91;4974379;28;20270;-76
2022/07/05 01:39:47;;;;;;;8.57;4.00;;;;;;;23.28;51.42;94853.44;4968873;28;20736;-75
2022/07/05 01:42:59;;;;;;;6.38;3.67;;;;;;;23.10;51.84;94854.25;4974077;28;20424;-76
2022/07/05 01:45:51;;;;;;;4.95;4.05;;;;;;;23.00;53.20;94849.13;4970960;28;20302;-76
2022/07/05 01:48:39;;;;;;;8.93;4.55;;;;;;;22.89;53.40;94842.41;4973781;28;20689;-76
2022/07/05 01:51:32;;;;;;;11.05;4.80;;;;;;;22.80;54.62;94844.94;4973871;28;20667;-76
2022/07/05 01:54:18;;;;;;;11.32;4.47;;;;;;;22.51;55.12;94846.97;4974014;28;20368;-76
2022/07/05 01:57:18;;;;;;;9.50;4.65;;;;;;;22.49;55.90;94841.94;4973298;28;20212;-75
2022/07/05 02:00:16;;;;;;;12.75;5.00;;;;;;;22.43;56.80;94843.06;4973837;28;20584;-75
2022/07/05 02:03:08;;;;;;;9.70;4.40;;;;;;;22.42;57.29;94841.50;4973595;28;20691;-75
2022/07/05 02:06:01;;;;;;;8.38;4.57;;;;;;;22.46;57.58;94842.50;4974268;28;20209;-75
2022/07/05 02:08:55;;;;;;;11.18;4.80;;;;;;;22.45;57.43;94840.91;4973627;28;20205;-75
2022/07/05 02:12:00;;;;;;;9.88;4.88;;;;;;;22.47;57.78;94841.44;4971408;28;20236;-75
2022/07/05 02:14:35;;;;;;;14.15;4.53;;;;;;;22.49;57.37;94844.56;4973866;28;20204;-76
2022/07/05 02:17:24;;;;;;;9.73;4.70;;;;;;;22.47;58.03;94843.28;4974010;28;21210;-76
2022/07/05 02:20:07;;;;;;;9.75;5.07;;;;;;;22.41;58.80;94844.44;4973320;28;20215;-75
2022/07/05 02:22:58;;;;;;;8.27;4.75;;;;;;;22.36;59.22;94853.25;4973266;28;20243;-76
2022/07/05 02:25:51;;;;;;;14.02;5.30;;;;;;;22.28;59.32;94840.63;4973128;28;20215;-76
2022/07/05 02:28:38;;;;;;;12.38;4.85;;;;;;;22.33;59.57;94853.03;4973436;28;20275;-75
2022/07/05 02:40:22;;;;;;;8.57;5.00;;;;;;;22.18;60.15;94866.47;4971690;28;20235;-75
2022/07/05 02:43:15;;;;;;;8.57;5.25;;;;;;;22.00;60.87;94865.38;4972692;28;20233;-75
2022/07/05 02:46:04;;;;;;;11.43;5.55;;;;;;;21.88;62.36;94867.63;4973418;28;20204;-74
2022/07/05 02:48:54;;;;;;;8.73;5.22;;;;;;;21.79;63.13;94872.72;4972457;28;20211;-74
2022/07/05 02:51:47;;;;;;;8.50;5.95;;;;;;;21.79;63.42;94872.72;4973220;28;20209;-74
2022/07/05 02:54:43;;;;;;;11.23;5.45;;;;;;;21.75;63.23;94868.28;4973015;28;20210;-75
2022/07/05 02:57:34;;;;;;;12.00;5.47;;;;;;;21.68;63.63;94873.91;4973039;28;20311;-75
2022/07/05 03:00:22;;;;;;;14.20;5.95;;;;;;;21.63;63.30;94886.41;4973121;28;20307;-75
2022/07/05 03:03:06;;;;;;;9.27;5.35;;;;;;;21.60;63.40;94876.38;4972831;28;20217;-75
2022/07/05 03:08:53;;;;;;;11.25;6.40;;;;;;;21.52;64.20;94879.66;4974435;28;20209;-75
2022/07/05 03:11:42;;;;;;;12.85;6.40;;;;;;;21.54;64.74;94877.50;4971747;28;20230;-75
2022/07/05 03:14:37;;;;;;;10.00;5.90;;;;;;;21.55;64.63;94876.44;4971303;28;20291;-75
2022/07/05 03:17:34;;;;;;;12.63;5.63;;;;;;;21.53;63.89;94870.66;4972539;28;20215;-76
2022/07/05 03:20:23;;;;;;;16.63;5.38;;;;;;;21.65;64.18;94876.31;4970216;28;20213;-75
2022/07/05 03:23:06;;;;;;;8.80;5.40;;;;;;;21.66;64.55;94876.06;4970966;28;20225;-75
2022/07/05 03:26:00;;;;;;;11.05;5.20;;;;;;;21.69;63.80;94866.78;4972503;28;20208;-75
2022/07/05 03:28:55;;;;;;;9.45;5.10;;;;;;;21.67;63.60;94866.28;4972500;28;20204;-76
2022/07/05 03:31:45;;;;;;;9.25;5.47;;;;;;;21.70;63.68;94865.72;4972463;28;20580;-75
2022/07/05 03:34:34;;;;;;;8.75;5.55;;;;;;;21.74;64.52;94869.34;4972046;28;20200;-75
2022/07/05 03:37:24;;;;;;;10.18;5.60;;;;;;;21.73;63.85;94873.84;4972366;28;20196;-76
2022/07/05 03:40:07;;;;;;;10.93;5.57;;;;;;;21.75;62.93;94873.59;4972139;28;20316;-76
2022/07/05 03:42:59;;;;;;;11.82;5.03;;;;;;;21.68;62.94;94862.53;4972458;28;20566;-75
2022/07/05 03:45:58;;;;;;;11.88;5.55;;;;;;;21.68;63.03;94859.88;4972103;28;20279;-75
2022/07/05 03:48:50;;;;;;;9.98;5.28;;;;;;;21.69;63.40;94864.13;4971973;28;20205;-75
2022/07/05 03:51:41;;;;;;;8.32;5.30;;;;;;;21.69;63.30;94864.13;4972304;28;20294;-75
2022/07/05 03:54:37;;;;;;;10.00;4.95;;;;;;;21.68;63.55;94862.53;4971814;28;20275;-75
2022/07/05 03:57:20;;;;;;;13.60;5.45;;;;;;;21.68;64.08;94860.69;4971873;28;20288;-75
2022/07/05 04:00:18;;;;;;;11.75;5.53;;;;;;;21.62;64.40;94868.94;4971530;28;20213;-76
2022/07/05 04:03:05;;;;;;;13.88;5.30;;;;;;;21.63;64.91;94860.75;4971162;28;20306;-76
2022/07/05 04:05:56;;;;;;;14.93;6.05;;;;;;;21.22;66.63;94862.22;4972088;28;20209;-75
2022/07/05 04:08:47;;;;;;;9.57;5.40;;;;;;;21.16;67.36;94866.75;4972056;28;20200;-75
2022/07/05 04:11:30;;;;;;;13.63;5.95;;;;;;;21.16;67.89;94863.31;4965040;28;20671;-75
2022/07/05 04:14:27;;;;;;;7.70;5.45;;;;;;;21.20;68.29;94872.28;4971727;28;20209;-75
2022/07/05 04:17:30;;;;;;;11.18;6.50;;;;;;;21.29;67.89;94870.63;4971880;28;20209;-76
2022/07/05 04:20:11;;;;;;;8.70;5.68;;;;;;;20.75;68.06;94865.50;4972149;28;20228;-76
2022/07/05 04:22:59;;;;;;;9.05;5.72;;;;;;;20.46;69.49;94864.66;4971319;28;20237;-76
2022/07/05 04:25:42;;;;;;;9.77;5.70;;;;;;;20.40;70.05;94861.25;4974657;28;20235;-75
2022/07/05 04:28:32;;;;;;;9.38;5.85;;;;;;;20.26;70.34;94862.91;4975006;28;20287;-75
2022/07/05 04:31:28;;;;;;;10.23;5.32;;;;;;;20.42;70.64;94867.03;4974916;28;20205;-76
2022/07/05 04:34:38;;;;;;;8.75;6.00;;;;;;;20.55;69.90;94865.66;4975126;28;20215;-76
2022/07/05 04:37:33;;;;;;;11.43;5.75;;;;;;;20.72;69.55;94861.53;4972860;28;20565;-75
2022/07/05 04:40:29;;;;;;;8.07;6.07;;;;;;;20.77;69.89;94864.16;4975047;28;20260;-75
2022/07/05 04:43:12;;;;;;;12.85;5.97;;;;;;;20.93;69.91;94864.81;4974853;28;20204;-75
2022/07/05 04:45:59;;;;;;;11.38;5.97;;;;;;;21.05;70.31;94856.53;4975013;28;20201;-74
2022/07/05 04:48:51;;;;;;;9.80;6.15;;;;;;;21.06;71.02;94860.75;4975248;28;20660;-75
2022/07/05 04:51:44;;;;;;;14.18;5.65;;;;;;;21.20;70.28;94869.66;4975465;28;20237;-76
2022/07/05 04:54:36;;;;;;;9.95;5.90;;;;;;;21.28;69.73;94864.53;4974890;28;20205;-75
2022/07/05 04:57:26;;;;;;;8.38;5.72;;;;;;;21.29;68.84;94862.69;4975173;28;20197;-75
2022/07/05 05:00:24;;;;;;;;;;;;;;;;;;;;;
2022/07/05 05:03:20;;;;;;;9.57;5.75;;;;;;;21.51;66.34;94863.00;4971230;28;20217;-76
2022/07/05 05:09:22;;;;;;;9.43;5.88;;;;;;;21.66;66.20;94873.41;4967805;28;20575;-76
2022/07/05 05:12:13;;;;;;;8.48;5.43;;;;;;;21.68;66.16;94868.63;4972700;28;20201;-76
2022/07/05 05:14:56;;;;;;;10.05;5.53;;;;;;;21.76;64.60;94875.94;4974537;28;20201;-75
2022/07/05 05:17:54;;;;;;;9.73;6.28;;;;;;;21.64;65.29;94877.41;4974432;28;20212;-76
2022/07/05 05:20:44;;;;;;;18.33;7.32;;;;;;;21.54;65.71;94880.94;4973717;28;20231;-75
2022/07/05 05:26:33;;;;;;;8.98;4.88;;;;;;;21.49;66.83;94878.34;4973940;28;20204;-75
2022/07/05 05:29:29;;;;;;;13.35;5.30;;;;;;;21.58;66.26;94868.75;4974427;28;20630;-75
2022/07/05 05:32:19;;;;;;;11.98;5.50;;;;;;;21.63;66.00;94881.13;4974131;28;20240;-75
2022/07/05 05:35:06;;;;;;;13.27;5.50;;;;;;;21.58;65.48;94874.03;4974012;28;20207;-76
2022/07/05 05:38:02;;;;;;;9.50;5.32;;;;;;;21.67;64.55;94874.22;4967516;28;20244;-75
2022/07/05 05:43:47;;;;;;;7.07;5.35;;;;;;;21.75;64.42;94869.09;4973865;28;20200;-76
2022/07/05 05:49:26;;;;;;;12.18;5.80;;;;;;;21.68;64.86;94865.97;4973377;28;20350;-75
2022/07/05 05:52:16;;;;;;;10.75;5.53;;;;;;;21.81;65.23;94869.81;4974196;28;20656;-76
2022/07/05 05:55:11;;;;;;;;;;;;;;;;;;;;;
2022/07/05 05:58:02;;;;;;;10.18;5.20;;;;;;;22.22;62.70;94875.44;4972015;28;20211;-76
2022/07/05 06:01:01;;;;;;;15.95;5.32;;;;;;;22.41;62.63;94876.22;4973565;28;20248;-75
2022/07/05 06:03:49;;;;;;;12.18;5.50;;;;;;;22.50;62.33;94879.81;4973704;28;20239;-76
2022/07/05 06:06:32;;;;;;;14.70;5.72;;;;;;;22.50;62.46;94879.81;4972994;28;20201;-75
2022/07/05 06:09:28;;;;;;;13.63;5.70;;;;;;;22.51;62.31;94882.16;4972843;28;20216;-76
2022/07/05 06:12:10;;;;;;;12.50;5.45;;;;;;;22.51;61.56;94879.50;4973889;28;20200;-75
2022/07/05 06:14:55;;;;;;;8.18;4.88;;;;;;;22.58;61.85;94887.13;4973217;28;20204;-75
2022/07/05 06:17:53;;;;;;;10.40;5.22;;;;;;;22.67;60.41;94881.97;4973294;28;20209;-75
2022/07/05 06:23:42;;;;;;;16.60;5.40;;;;;;;22.83;60.34;94884.09;4934527;29;20269;-75
2022/07/05 06:26:32;;;;;;;13.02;5.32;;;;;;;22.85;60.08;94891.78;4934453;29;20270;-76
2022/07/05 06:29:23;;;;;;;9.55;5.10;;;;;;;22.91;60.38;94893.28;4934766;29;20201;-75
2022/07/05 06:32:08;;;;;;;10.82;5.53;;;;;;;22.91;59.70;94888.00;4934573;29;20218;-75
2022/07/05 06:35:11;;;;;;;11.75;5.38;;;;;;;22.86;59.40;94890.69;4934433;29;20224;-75
2022/07/05 06:38:01;;;;;;;10.77;5.20;;;;;;;22.90;58.85;94889.84;4934069;29;20296;-75
2022/07/05 06:40:48;;;;;;;13.18;5.28;;;;;;;23.00;58.92;94881.72;4934343;29;20230;-76
2022/07/05 06:43:48;;;;;;;12.98;5.50;;;;;;;23.10;58.30;94881.56;4934719;29;20293;-75
2022/07/05 06:49:32;;;;;;;16.00;5.18;;;;;;;23.16;59.26;94884.91;4933722;29;20600;-75
2022/07/05 06:52:23;;;;;;;10.25;5.75;;;;;;;23.48;58.35;94876.19;4934244;29;21016;-76
2022/07/05 06:55:11;;;;;;;13.25;5.40;;;;;;;23.72;56.99;94871.50;4934226;29;20788;-75
2022/07/05 06:58:08;;;;;;;8.90;4.90;;;;;;;23.87;56.72;94867.72;4933971;29;20206;-75
2022/07/05 07:00:56;;;;;;;9.63;4.90;;;;;;;23.93;55.82;94863.91;4932192;29;20684;-74
2022/07/05 07:03:46;;;;;;;11.88;5.43;;;;;;;23.94;55.81;94860.97;4934169;29;20205;-76
2022/07/05 07:06:36;;;;;;;14.48;6.55;;;;;;;23.99;55.83;94857.41;4934110;29;20674;-74
2022/07/05 07:09:24;;;;;;;10.98;5.40;;;;;;;24.09;55.91;94863.31;4934141;29;20213;-75
2022/07/05 07:12:10;;;;;;;14.73;5.28;;;;;;;24.18;55.59;94871.41;4934036;29;20202;-77
2022/07/05 07:14:40;;;;;;;10.48;5.05;;;;;;;24.26;55.15;94868.84;4933962;29;20206;-76
2022/07/05 07:17:34;;;;;;;13.30;5.13;;;;;;;24.38;55.16;94868.31;4933813;29;20610;-76
2022/07/05 07:20:19;;;;;;;13.45;4.88;;;;;;;24.50;54.95;94868.56;4934002;29;20248;-76
2022/07/05 07:23:09;;;;;;;12.48;4.82;;;;;;;24.61;55.12;94874.47;4968797;28;20711;-75
2022/07/05 07:26:09;;;;;;;9.65;4.80;;;;;;;24.71;54.53;94879.53;4971956;28;20200;-75
2022/07/05 07:32:02;;;;;;;21.30;6.25;;;;;;;24.96;54.00;94872.88;4972107;28;20928;-75
2022/07/05 07:40:41;;;;;;;13.55;5.15;;;;;;;25.03;53.84;94867.91;4971877;28;20232;-76
2022/07/05 07:43:32;;;;;;;10.77;5.22;;;;;;;25.05;53.75;94868.41;4972085;28;20251;-77
2022/07/05 07:46:24;;;;;;;10.27;5.10;;;;;;;25.08;53.48;94867.81;4971978;28;20240;-75
2022/07/05 07:52:21;;;;;;;11.60;5.03;;;;;;;25.15;53.19;94860.97;4970469;28;20239;-77
2022/07/05 07:55:11;;;;;;;8.98;4.88;;;;;;;25.13;52.63;94871.13;4971545;28;20223;-76
2022/07/05 07:58:00;;;;;;;10.52;5.28;;;;;;;25.16;52.81;94867.88;4971967;28;20209;-75
2022/07/05 08:01:10;;;;;;;;;;;;;;;;;;;;;
2022/07/05 08:04:03;;;;;;;16.35;5.45;;;;;;;25.24;52.92;94874.31;4968514;28;20212;-75
2022/07/05 08:09:52;;;;;;;8.45;5.55;;;;;;;25.39;51.59;94873.94;4973705;28;20289;-75
2022/07/05 08:12:44;;;;;;;7.82;5.68;;;;;;;25.45;51.41;94872.72;4975676;28;20645;-75
2022/07/05 08:15:26;;;;;;;11.15;5.13;;;;;;;25.52;51.43;94859.78;4975043;28;20201;-75
2022/07/05 08:24:15;;;;;;;10.35;5.60;;;;;;;26.05;50.83;94856.22;4975960;28;20586;-75
2022/07/05 08:27:02;;;;;;;13.50;5.18;;;;;;;26.34;49.96;94856.47;4975113;28;20295;-75
2022/07/05 08:29:53;;;;;;;14.73;5.72;;;;;;;26.44;49.46;94853.47;4975437;28;20208;-75
2022/07/05 08:32:47;;;;;;;11.82;5.03;;;;;;;26.48;49.92;94852.56;4975400;28;20204;-75
2022/07/05 08:35:45;;;;;;;9.55;5.20;;;;;;;26.55;49.77;94845.97;4975424;28;20220;-76
2022/07/05 08:41:31;;;;;;;8.65;5.18;;;;;;;26.69;49.69;94836.72;4970222;28;20228;-76
2022/07/05 08:44:32;;;;;;;9.68;5.63;;;;;;;26.80;49.73;94843.34;4975291;28;20213;-76
2022/07/05 08:47:30;;;;;;;12.63;5.90;;;;;;;26.96;49.16;94840.97;4975497;28;20651;-76
2022/07/05 08:50:16;;;;;;;9.75;6.10;;;;;;;27.01;48.37;94838.91;4974272;28;20670;-76
2022/07/05 08:53:19;;;;;;;9.75;5.00;;;;;;;27.19;49.23;94844.22;4975126;28;20667;-75
2022/07/05 08:58:59;;;;;;;10.93;5.95;;;;;;;27.47;49.25;94829.44;4971924;28;20236;-75
2022/07/05 09:01:47;;;;;;;12.07;5.40;;;;;;;27.57;47.66;94829.84;4974995;28;20213;-75
2022/07/05 09:04:45;;;;;;;11.13;5.80;;;;;;;27.72;47.81;94825.06;4974796;28;20231;-76
2022/07/05 09:07:37;;;;;;;12.77;6.00;;;;;;;27.70;47.69;94817.41;4975435;28;20700;-76
2022/07/05 09:10:39;;;;;;;18.83;7.20;;;;;;;27.87;47.56;94821.88;4970442;28;20221;-76
2022/07/05 09:13:31;;;;;;;16.10;5.97;;;;;;;27.98;46.95;94823.84;4974790;28;20240;-75
2022/07/05 09:16:27;;;;;;;8.90;6.25;;;;;;;28.04;45.88;94817.25;4969677;28;20600;-76
2022/07/05 09:19:28;;;;;;;11.48;5.97;;;;;;;28.05;45.62;94810.00;4974550;28;20208;-76
2022/07/05 09:22:14;;;;;;;8.77;5.82;;;;;;;28.11;46.88;94806.81;4974488;28;20244;-75
2022/07/05 09:25:02;;;;;;;13.40;6.05;;;;;;;28.19;46.33;94796.38;4973074;28;20668;-76
2022/07/05 09:31:01;;;;;;;17.10;6.45;;;;;;;28.46;44.40;94804.66;4974278;28;20207;-76
2022/07/05 09:34:12;;;;;;;16.60;6.10;;;;;;;28.56;44.65;94803.50;4974374;28;20679;-76
2022/07/05 09:37:18;;;;;;;13.60;6.00;;;;;;;28.73;43.52;94794.56;4974100;28;20212;-76
2022/07/05 09:43:19;;;;;;;12.75;5.78;;;;;;;29.24;43.78;94797.56;4974092;28;20748;-76
2022/07/05 09:46:15;;;;;;;12.63;6.03;;;;;;;29.58;44.07;94798.28;4974336;28;20267;-76
2022/07/05 09:49:14;;;;;;;13.27;5.45;;;;;;;29.74;40.99;94794.59;4974141;28;20307;-76
2022/07/05 09:52:10;;;;;;;8.75;5.97;;;;;;;29.73;40.56;94790.34;4974314;28;20315;-75
2022/07/05 09:55:17;;;;;;;9.25;6.05;;;;;;;29.80;42.42;94776.41;4973992;28;20271;-76
2022/07/05 09:58:11;;;;;;;9.82;6.20;;;;;;;29.98;41.88;94779.66;4974316;28;20201;-77
2022/07/05 10:00:59;;;;;;;10.60;6.07;;;;;;;30.10;42.08;94771.59;4973774;28;20224;-77
2022/07/05 10:04:01;;;;;;;10.93;5.68;;;;;;;30.32;42.21;94765.72;4973956;28;20287;-75
2022/07/05 10:06:54;;;;;;;12.90;6.25;;;;;;;30.68;41.05;94775.59;4974053;28;20259;-76
2022/07/05 10:09:42;;;;;;;11.55;6.07;;;;;;;30.87;41.40;94770.38;4973946;28;20213;-75
2022/07/05 10:12:42;;;;;;;;;;;;;;;;;;;;;
2022/07/05 10:15:43;;;;;;;11.63;6.35;;;;;;;31.22;40.86;94771.34;4973540;28;20216;-76
2022/07/05 10:18:33;;;;;;;8.75;5.88;;;;;;;31.52;40.41;94760.16;4973824;28;20240;-76
2022/07/05 10:24:21;;;;;;;8.30;5.78;;;;;;;31.79;39.20;94760.06;4972196;28;20584;-77
2022/07/05 10:27:20;;;;;;;11.00;5.97;;;;;;;32.01;39.75;94751.38;4973700;28;20212;-76
2022/07/05 10:30:16;;;;;;;11.18;6.13;;;;;;;32.19;38.81;94753.66;4973447;28;20211;-77
2022/07/05 10:33:21;;;;;;;13.00;6.20;;;;;;;32.37;39.35;94750.22;4970161;28;20201;-76
2022/07/05 10:36:18;;;;;;;6.95;6.20;;;;;;;32.38;36.93;94753.72;4973266;28;20244;-76
2022/07/05 10:39:14;;;;;;;11.27;6.85;;;;;;;32.30;37.16;94750.06;4972979;28;20594;-76
2022/07/05 10:42:17;;;;;;;7.53;6.38;;;;;;;32.18;37.93;94747.50;4972755;28;20319;-76
2022/07/05 10:45:08;;;;;;;13.00;6.40;;;;;;;32.27;37.87;94748.09;4972353;28;20205;-75
2022/07/05 10:48:19;;;;;;;13.20;6.35;;;;;;;32.35;37.46;94744.41;4972769;28;20291;-76
2022/07/05 10:51:18;;;;;;;8.18;5.82;;;;;;;32.66;37.82;94743.53;4973082;28;20201;-76
2022/07/05 10:54:31;;;;;;;20.42;6.45;;;;;;;33.04;37.11;94751.56;4972855;28;20670;-76
2022/07/05 10:57:52;;;;;;;13.07;6.38;;;;;;;33.40;36.90;94746.81;4972575;28;20287;-76
2022/07/05 11:00:44;;;;;;;9.43;6.00;;;;;;;33.68;35.50;94744.63;4951189;29;20303;-76
2022/07/05 11:03:55;;;;;;;9.18;5.78;;;;;;;33.73;35.23;94735.41;4968721;28;20205;-76
2022/07/05 11:06:49;;;;;;;12.32;5.80;;;;;;;33.93;35.56;94734.19;4973329;28;20189;-76
2022/07/05 11:09:37;;;;;;;13.38;5.40;;;;;;;34.14;35.64;94731.81;4972183;28;20209;-76
2022/07/05 11:12:25;;;;;;;7.80;5.53;;;;;;;34.48;34.00;94729.94;4972379;28;20219;-76
2022/07/05 11:14:58;;;;;;;10.68;5.95;;;;;;;34.60;33.11;94730.50;4970243;28;20207;-76
2022/07/05 11:17:49;;;;;;;11.18;5.20;;;;;;;34.55;32.07;94732.69;4972643;28;20558;-76
2022/07/05 11:20:40;;;;;;;10.77;5.32;;;;;;;34.45;33.71;94719.84;4971385;28;20291;-75
2022/07/05 11:23:42;;;;;;;10.57;5.53;;;;;;;34.60;34.48;94714.28;4934210;29;20209;-76
2022/07/05 11:26:34;;;;;;;10.18;5.90;;;;;;;34.82;34.43;94714.50;4933887;29;20284;-76
2022/07/05 11:29:56;;;;;;;9.70;5.82;;;;;;;34.78;34.29;94725.28;4934110;29;20269;-77
2022/07/05 11:33:03;;;;;;;;;;;;;;;;;;;;;
2022/07/05 11:35:58;;;;;;;9.43;5.97;;;;;;;35.21;34.22;94721.13;4933303;29;20715;-76
2022/07/05 11:39:26;;;;;;;7.18;5.70;;;;;;;35.41;33.73;94714.34;4933741;29;20205;-76
2022/07/05 11:42:29;;;;;;;8.20;5.47;;;;;;;35.59;33.27;94704.44;4927803;29;20228;-75
2022/07/05 11:45:24;;;;;;;12.10;5.70;;;;;;;35.81;33.48;94706.16;4933865;29;20206;-76
2022/07/05 11:48:19;;;;;;;13.38;6.10;;;;;;;35.94;33.94;94714.72;4933754;29;20302;-76
2022/07/05 11:51:07;;;;;;;14.20;5.70;;;;;;;36.08;33.14;94700.53;4932650;29;20293;-76
2022/07/05 11:54:06;;;;;;;11.55;5.68;;;;;;;35.77;33.16;94694.53;4933672;29;20865;-76
2022/07/05 11:56:56;;;;;;;13.10;5.68;;;;;;;35.62;33.50;94689.38;4933482;29;20210;-76
2022/07/05 11:59:45;;;;;;;11.70;6.10;;;;;;;35.61;33.98;94691.34;4933754;29;20202;-76
2022/07/05 12:02:50;;;;;;;9.88;5.75;;;;;;;35.83;32.41;94693.03;4934069;29;20229;-77
2022/07/05 12:05:40;;;;;;;9.07;5.90;;;;;;;35.56;32.64;94680.84;4932762;29;20296;-76
2022/07/05 12:08:34;;;;;;;8.88;5.90;;;;;;;35.43;34.10;94682.28;4933604;29;20678;-76
2022/07/05 12:14:28;;;;;;;11.38;6.30;;;;;;;35.98;33.08;94674.94;4933655;29;20209;-76
2022/07/05 12:17:31;;;;;;;8.98;5.55;;;;;;;36.27;33.24;94667.75;4933923;29;20618;-76
2022/07/05 12:20:19;;;;;;;10.40;5.97;;;;;;;36.44;32.20;94669.75;4933930;29;20650;-75
2022/07/05 12:23:14;;;;;;;11.70;5.40;;;;;;;36.63;31.89;94671.38;4966606;28;20272;-76
2022/07/05 12:25:52;;;;;;;10.82;5.60;;;;;;;36.72;31.48;94666.34;4971421;28;20204;-76
2022/07/05 12:28:50;;;;;;;6.75;5.50;;;;;;;36.74;31.49;94661.34;4970626;28;20205;-76
2022/07/05 12:37:31;;;;;;;7.07;5.43;;;;;;;36.99;31.32;94658.69;4966700;28;20224;-77
2022/07/05 12:40:36;;;;;;;6.78;5.15;;;;;;;37.15;31.11;94665.28;4971945;28;20212;-76
2022/07/05 12:43:31;;;;;;;8.13;5.97;;;;;;;37.26;30.66;94660.63;4971695;28;20705;-77
2022/07/05 12:46:50;;;;;;;8.40;5.70;;;;;;;37.41;29.90;94661.41;4973791;28;20204;-77
2022/07/05 12:49:41;;;;;;;8.85;5.68;;;;;;;37.33;30.01;94657.16;4976045;28;20578;-77
2022/07/05 12:52:34;;;;;;;13.50;6.05;;;;;;;37.37;30.11;94660.66;4975180;28;20201;-76
2022/07/05 12:58:29;;;;;;;9.93;6.35;;;;;;;37.58;29.97;94643.59;4975532;28;20203;-76
2022/07/05 13:04:18;;;;;;;10.70;5.70;;;;;;;37.37;29.48;94637.00;4974758;28;20212;-76
2022/07/05 13:07:18;;;;;;;11.93;5.78;;;;;;;37.27;30.66;94635.06;4974931;28;20208;-75
2022/07/05 13:10:14;;;;;;;8.30;5.90;;;;;;;37.24;30.22;94625.00;4974702;28;20300;-75
2022/07/05 13:13:01;;;;;;;9.27;5.60;;;;;;;37.32;30.18;94626.53;4975023;28;20355;-75
2022/07/05 13:15:50;;;;;;;12.27;6.20;;;;;;;37.47;30.86;94622.69;4975426;28;20196;-76
2022/07/05 13:19:00;;;;;;;7.88;6.10;;;;;;;37.59;30.36;94616.06;4974696;28;20211;-76
2022/07/05 13:21:52;;;;;;;10.13;5.57;;;;;;;37.78;30.91;94617.59;4972947;28;20240;-75
2022/07/05 13:27:36;;;;;;;6.93;5.80;;;;;;;37.85;30.12;94620.25;4970534;28;20201;-76
2022/07/05 13:30:36;;;;;;;;;;;;;;;;;;;;;
2022/07/05 13:33:27;;;;;;;12.10;5.70;;;;;;;36.88;30.09;94610.66;4973916;28;20231;-77
2022/07/05 13:36:18;;;;;;;10.20;5.70;;;;;;;36.11;31.49;94611.19;4974940;28;20635;-77
2022/07/05 13:39:10;;;;;;;9.15;5.97;;;;;;;35.99;32.53;94603.38;4974495;28;20215;-76
2022/07/05 13:42:13;;;;;;;10.85;6.68;;;;;;;36.11;31.79;94605.78;4973892;28;20703;-76
2022/07/05 13:44:57;;;;;;;6.95;6.30;;;;;;;36.02;31.97;94601.88;4973832;28;20208;-76
2022/07/05 13:47:39;;;;;;;7.22;5.80;;;;;;;36.14;32.03;94604.22;4972203;28;20204;-76
2022/07/05 13:53:36;;;;;;;14.20;6.00;;;;;;;35.88;31.95;94597.16;4974224;28;20295;-76
2022/07/05 13:56:31;;;;;;;;;;;;;;;;;;;;;
2022/07/05 13:59:22;;;;;;;8.85;6.38;;;;;;;35.77;32.31;94586.28;4970978;28;20231;-75
2022/07/05 14:02:03;;;;;;;10.77;6.10;;;;;;;35.92;32.77;94583.63;4973954;28;20224;-75
2022/07/05 14:04:40;;;;;;;9.43;6.10;;;;;;;35.62;32.72;94581.16;4974008;28;20204;-76
2022/07/05 14:07:25;;;;;;;11.98;6.13;;;;;;;35.41;32.69;94556.69;4973649;28;20290;-75
2022/07/05 14:10:09;;;;;;;13.27;6.68;;;;;;;35.37;33.48;94570.19;4973814;28;20295;-76
2022/07/05 14:13:08;;;;;;;11.35;5.85;;;;;;;35.44;33.42;94566.75;4973530;28;20209;-77
2022/07/05 14:16:07;;;;;;;10.90;6.10;;;;;;;35.04;33.97;94549.47;4973638;28;20660;-76
2022/07/05 14:19:02;;;;;;;8.55;6.50;;;;;;;34.99;34.00;94549.81;4973827;28;20203;-76
2022/07/05 14:21:53;;;;;;;9.43;5.97;;;;;;;34.78;35.11;94554.31;4972296;28;20744;-75
2022/07/05 14:24:42;;;;;;;11.13;6.28;;;;;;;34.72;34.88;94551.91;4973976;28;20207;-75
2022/07/05 14:27:37;;;;;;;8.65;6.10;;;;;;;34.51;34.53;94559.81;4970040;28;20262;-76
2022/07/05 14:30:23;;;;;;;9.20;6.10;;;;;;;34.25;35.98;94554.56;4970074;28;20214;-75
2022/07/05 14:33:21;;;;;;;12.57;6.07;;;;;;;34.30;36.08;94551.50;4973103;28;20201;-76
2022/07/05 14:36:04;;;;;;;9.48;6.72;;;;;;;34.19;35.59;94553.34;4973048;28;20193;-76
2022/07/05 14:38:49;;;;;;;15.68;6.32;;;;;;;34.07;35.40;94558.94;4973147;28;20638;-76
2022/07/05 14:41:37;;;;;;;8.27;6.00;;;;;;;33.97;36.28;94556.94;4962943;28;20209;-76
2022/07/05 14:44:31;;;;;;;11.70;6.60;;;;;;;33.78;36.14;94554.38;4973694;28;20267;-76
2022/07/05 14:47:21;;;;;;;17.02;6.95;;;;;;;33.60;36.95;94546.84;4973608;28;20204;-75
2022/07/05 14:50:24;;;;;;;8.77;6.25;;;;;;;33.51;37.13;94546.28;4972825;28;20203;-75
2022/07/05 14:53:21;;;;;;;10.18;6.47;;;;;;;33.45;38.28;94542.38;4972925;28;20301;-75
2022/07/05 14:56:32;;;;;;;12.15;6.57;;;;;;;33.53;37.51;94540.56;4972812;28;20208;-75
2022/07/05 14:59:16;;;;;;;12.43;6.38;;;;;;;33.58;37.65;94534.88;4973065;28;20687;-76
2022/07/05 15:02:05;;;;;;;11.35;6.70;;;;;;;33.36;37.90;94533.78;4972865;28;20284;-76
2022/07/05 15:04:39;;;;;;;12.45;6.18;;;;;;;33.46;37.83;94530.44;4972245;28;20204;-75
2022/07/05 15:07:31;;;;;;;14.52;6.70;;;;;;;33.67;37.63;94525.34;4972912;28;20212;-76
2022/07/05 15:10:21;;;;;;;8.32;6.00;;;;;;;33.96;37.44;94512.19;4972249;28;20257;-76
2022/07/05 15:13:14;;;;;;;10.20;5.60;;;;;;;33.96;35.95;94517.59;4972295;28;20200;-76
2022/07/05 15:16:04;;;;;;;13.55;6.25;;;;;;;34.00;36.27;94519.16;4972811;28;20204;-77
2022/07/05 15:18:45;;;;;;;6.50;5.70;;;;;;;34.23;36.08;94510.94;4972657;28;20652;-76